createdAt,value
2023-02-17T00:00:06.396Z,101267.50
2023-02-17T00:02:32.769Z,101262.50
2023-02-17T00:04:59.091Z,101265.22
2023-02-17T00:07:25.429Z,101255.34
2023-02-17T00:09:51.732Z,101251.88
2023-02-17T00:12:18.022Z,101249.53
2023-02-17T00:14:44.320Z,101254.91
2023-02-17T00:17:10.619Z,101253.84
2023-02-17T00:19:36.914Z,101241.78
2023-02-17T00:22:03.228Z,101234.81
2023-02-17T00:24:31.076Z,101229.00
2023-02-17T00:26:57.445Z,101228.75
2023-02-17T00:29:23.842Z,101217.97
2023-02-17T00:31:52.112Z,101215.63
2023-02-17T00:34:18.752Z,101213.84
2023-02-17T00:36:45.349Z,101200.78
2023-02-17T00:39:13.786Z,101200.66
2023-02-17T00:41:40.092Z,101194.28
2023-02-17T00:44:06.395Z,101195.53
2023-02-17T00:46:32.757Z,101193.31
2023-02-17T00:48:59.082Z,101179.34
2023-02-17T00:51:25.634Z,101184.66
2023-02-17T00:53:52.141Z,101169.28
2023-02-17T00:56:18.520Z,101170.16
2023-02-17T00:58:46.132Z,101169.91
2023-02-17T01:01:12.496Z,101164.47
2023-02-17T01:03:40.806Z,101154.53
2023-02-17T01:06:08.199Z,101153.31
2023-02-17T01:08:34.548Z,101154.34
2023-02-17T01:11:01.105Z,101137.69
2023-02-17T01:13:27.418Z,101141.75
2023-02-17T01:15:54.024Z,101138.91
2023-02-17T01:18:22.105Z,101138.06
2023-02-17T01:20:48.420Z,101140.41
2023-02-17T01:23:15.173Z,101135.34
2023-02-17T01:25:42.713Z,101130.75
2023-02-17T01:28:10.769Z,101131.25
2023-02-17T01:30:37.346Z,101127.13
2023-02-17T01:33:03.656Z,101127.13
2023-02-17T01:35:29.950Z,101126.53
2023-02-17T01:37:56.269Z,101122.94
2023-02-17T01:40:22.746Z,101111.28
2023-02-17T01:42:49.025Z,101108.53
2023-02-17T01:45:18.430Z,101108.38
2023-02-17T01:47:47.763Z,101101.16
2023-02-17T01:50:14.898Z,101091.56
2023-02-17T01:52:41.677Z,101086.56
2023-02-17T01:55:10.782Z,101071.03
2023-02-17T01:57:38.174Z,101065.91
2023-02-17T02:00:05.708Z,101063.44
2023-02-17T02:02:32.434Z,101058.44
2023-02-17T02:04:58.899Z,101039.56
2023-02-17T02:07:35.692Z,101033.63
2023-02-17T02:10:02.057Z,101021.63
2023-02-17T02:12:33.236Z,101014.25
2023-02-17T02:15:01.882Z,101008.50
2023-02-17T02:17:35.309Z,101012.34
2023-02-17T02:20:08.462Z,101015.25
2023-02-17T02:22:43.554Z,101007.22
2023-02-17T02:25:12.963Z,101001.16
2023-02-17T02:27:42.416Z,100998.88
2023-02-17T02:30:17.516Z,100990.22
2023-02-17T02:32:48.562Z,100979.81
2023-02-17T02:35:20.876Z,100976.63
2023-02-17T02:37:57.014Z,100968.28
2023-02-17T02:40:27.047Z,100962.84
2023-02-17T02:42:54.457Z,100959.97
2023-02-17T02:45:21.471Z,100957.25
2023-02-17T02:47:54.756Z,100950.81
2023-02-17T02:50:36.439Z,100946.66
2023-02-17T02:53:08.835Z,100949.06
2023-02-17T02:55:35.080Z,100938.66
2023-02-17T02:58:20.304Z,100945.09
2023-02-17T03:01:05.531Z,100937.84
2023-02-17T03:03:51.952Z,100933.19
2023-02-17T03:06:26.162Z,100925.53
2023-02-17T03:09:00.940Z,100928.56
2023-02-17T03:11:33.082Z,100928.38
2023-02-17T03:14:03.424Z,100934.19
2023-02-17T03:16:29.835Z,100938.97
2023-02-17T03:18:56.154Z,100930.63
2023-02-17T03:21:23.280Z,100930.50
2023-02-17T03:23:49.586Z,100916.09
2023-02-17T03:26:15.964Z,100923.28
2023-02-17T03:28:42.286Z,100920.88
2023-02-17T03:31:08.620Z,100916.88
2023-02-17T03:33:34.930Z,100923.66
2023-02-17T03:36:01.308Z,100903.91
2023-02-17T03:38:27.595Z,100903.13
2023-02-17T03:40:53.884Z,100897.19
2023-02-17T03:43:20.210Z,100904.53
2023-02-17T03:45:46.589Z,100896.38
2023-02-17T03:48:12.910Z,100894.34
2023-02-17T03:50:39.220Z,100896.88
2023-02-17T03:53:05.712Z,100889.03
2023-02-17T03:55:32.026Z,100884.50
2023-02-17T03:57:58.350Z,100886.28
2023-02-17T04:00:24.743Z,100881.66
2023-02-17T04:02:51.109Z,100891.91
2023-02-17T04:05:17.475Z,100884.53
2023-02-17T04:07:43.808Z,100879.59
2023-02-17T04:10:10.269Z,100873.50
2023-02-17T04:12:36.637Z,100868.69
2023-02-17T04:15:03.108Z,100866.44
2023-02-17T04:17:29.371Z,100872.03
2023-02-17T04:19:55.671Z,100872.72
2023-02-17T04:22:22.015Z,100869.94
2023-02-17T04:24:48.280Z,100876.69
2023-02-17T04:27:14.626Z,100873.34
2023-02-17T04:29:40.965Z,100866.91
2023-02-17T04:32:07.339Z,100865.16
2023-02-17T04:34:33.710Z,100854.75
2023-02-17T04:37:00.019Z,100852.84
2023-02-17T04:39:26.293Z,100853.31
2023-02-17T04:41:52.997Z,100853.00
2023-02-17T04:44:19.308Z,100856.81
2023-02-17T04:46:45.611Z,100859.81
2023-02-17T04:49:11.923Z,100858.56
2023-02-17T04:51:38.214Z,100857.59
2023-02-17T04:54:04.623Z,100864.31
2023-02-17T04:56:30.971Z,100852.81
2023-02-17T04:58:57.251Z,100840.47
2023-02-17T05:01:23.576Z,100852.34
2023-02-17T05:03:49.908Z,100857.63
2023-02-17T05:06:16.172Z,100852.16
2023-02-17T05:08:42.507Z,100843.31
2023-02-17T05:11:08.931Z,100841.41
2023-02-17T05:13:35.244Z,100842.09
2023-02-17T05:16:01.552Z,100834.69
2023-02-17T05:18:27.922Z,100824.13
2023-02-17T05:20:54.289Z,100839.50
2023-02-17T05:23:20.617Z,100832.94
2023-02-17T05:25:46.943Z,100823.69
2023-02-17T05:28:13.219Z,100831.34
2023-02-17T05:30:39.555Z,100829.25
2023-02-17T05:33:05.902Z,100825.06
2023-02-17T05:35:35.083Z,100825.06
2023-02-17T05:38:01.492Z,100827.63
2023-02-17T05:40:27.814Z,100816.28
2023-02-17T05:42:54.094Z,100811.78
2023-02-17T05:45:20.398Z,100812.91
2023-02-17T05:47:46.785Z,100807.13
2023-02-17T05:50:13.101Z,100795.75
2023-02-17T05:52:39.423Z,100800.94
2023-02-17T05:55:05.941Z,100795.75
2023-02-17T05:57:32.417Z,100796.88
2023-02-17T05:59:58.717Z,100793.03
2023-02-17T06:02:25.106Z,100791.78
2023-02-17T06:04:51.494Z,100781.19
2023-02-17T06:07:17.916Z,100782.28
2023-02-17T06:09:46.449Z,100779.38
2023-02-17T06:12:13.537Z,100779.53
2023-02-17T06:14:39.861Z,100776.16
2023-02-17T06:17:06.207Z,100775.38
2023-02-17T06:19:32.511Z,100774.84
2023-02-17T06:21:58.868Z,100766.28
2023-02-17T06:24:25.387Z,100781.72
2023-02-17T06:26:51.681Z,100787.22
2023-02-17T06:29:18.003Z,100772.31
2023-02-17T06:31:44.399Z,100773.63
2023-02-17T06:34:10.805Z,100770.09
2023-02-17T06:36:37.076Z,100757.41
2023-02-17T06:39:03.577Z,100756.09
2023-02-17T06:41:29.915Z,100744.78
2023-02-17T06:43:56.243Z,100744.78
2023-02-17T06:46:22.620Z,100739.78
2023-02-17T06:48:48.937Z,100729.22
2023-02-17T06:51:15.325Z,100740.41
2023-02-17T06:53:41.708Z,100737.84
2023-02-17T06:56:08.142Z,100730.09
2023-02-17T06:58:36.495Z,100739.59
2023-02-17T07:01:03.015Z,100741.22
2023-02-17T07:03:29.589Z,100736.19
2023-02-17T07:05:59.338Z,100744.03
2023-02-17T07:08:25.758Z,100732.81
2023-02-17T07:10:52.172Z,100729.72
2023-02-17T07:13:18.530Z,100732.97
2023-02-17T07:15:44.936Z,100739.16
2023-02-17T07:18:11.236Z,100729.56
2023-02-17T07:20:39.254Z,100725.13
2023-02-17T07:23:05.854Z,100732.41
2023-02-17T07:25:32.158Z,100725.25
2023-02-17T07:27:59.904Z,100720.72
2023-02-17T07:30:26.313Z,100723.41
2023-02-17T07:32:52.628Z,100731.56
2023-02-17T07:35:18.933Z,100736.81
2023-02-17T07:37:45.270Z,100730.13
2023-02-17T07:40:11.887Z,100720.22
2023-02-17T07:42:38.210Z,100726.28
2023-02-17T07:45:04.872Z,100723.44
2023-02-17T07:47:32.033Z,100718.13
2023-02-17T07:49:58.349Z,100725.31
2023-02-17T07:52:24.685Z,100722.53
2023-02-17T07:54:51.000Z,100724.91
2023-02-17T07:57:17.651Z,100719.63
2023-02-17T07:59:45.854Z,100711.00
2023-02-17T08:02:12.424Z,100707.81
2023-02-17T08:04:38.723Z,100711.16
2023-02-17T08:07:05.113Z,100711.63
2023-02-17T08:09:49.771Z,100712.06
2023-02-17T08:12:36.108Z,100704.38
2023-02-17T08:15:02.530Z,100699.91
2023-02-17T08:17:29.125Z,100695.97
2023-02-17T08:19:55.861Z,100696.78
2023-02-17T08:22:22.515Z,100676.16
2023-02-17T08:24:49.127Z,100673.97
2023-02-17T08:27:15.958Z,100666.97
2023-02-17T08:29:42.401Z,100660.88
2023-02-17T08:32:08.886Z,100657.66
2023-02-17T08:34:35.454Z,100647.41
2023-02-17T08:37:02.675Z,100644.88
2023-02-17T08:39:29.093Z,100647.59
2023-02-17T08:41:56.075Z,100634.41
2023-02-17T08:44:22.586Z,100634.91
2023-02-17T08:46:49.725Z,100638.66
2023-02-17T08:49:17.419Z,100625.84
2023-02-17T08:51:44.111Z,100624.47
2023-02-17T08:54:11.029Z,100627.63
2023-02-17T08:56:39.055Z,100620.56
2023-02-17T08:59:06.261Z,100608.25
2023-02-17T09:01:32.747Z,100617.13
2023-02-17T09:04:00.272Z,100601.72
2023-02-17T09:06:33.672Z,100601.97
2023-02-17T09:08:59.994Z,100596.13
2023-02-17T09:11:26.323Z,100584.31
2023-02-17T09:13:52.663Z,100588.81
2023-02-17T09:16:20.782Z,100583.03
2023-02-17T09:18:47.217Z,100595.97
2023-02-17T09:21:13.801Z,100595.78
2023-02-17T09:23:40.791Z,100581.09
2023-02-17T09:26:08.827Z,100575.09
2023-02-17T09:28:35.508Z,100566.78
2023-02-17T09:31:16.789Z,100567.03
2023-02-17T09:33:43.382Z,100560.69
2023-02-17T09:36:12.228Z,100558.25
2023-02-17T09:38:39.331Z,100552.94
2023-02-17T09:41:21.220Z,100552.25
2023-02-17T09:43:47.672Z,100546.31
2023-02-17T09:46:20.238Z,100543.38
2023-02-17T09:48:48.067Z,100540.19
2023-02-17T09:51:19.792Z,100538.47
2023-02-17T09:53:55.460Z,100535.78
2023-02-17T09:56:24.344Z,100535.19
2023-02-17T09:58:53.484Z,100522.91
2023-02-17T10:01:21.192Z,100523.03
2023-02-17T10:03:54.353Z,100518.25
2023-02-17T10:06:26.841Z,100509.03
2023-02-17T10:08:55.150Z,100504.03
2023-02-17T10:11:21.641Z,100504.50
2023-02-17T10:13:47.969Z,100502.66
2023-02-17T10:16:21.271Z,100501.06
2023-02-17T10:18:52.414Z,100506.16
2023-02-17T10:21:23.759Z,100496.41
2023-02-17T10:23:51.306Z,100486.28
2023-02-17T10:26:26.593Z,100499.50
2023-02-17T10:28:59.050Z,100495.84
2023-02-17T10:31:57.906Z,100495.84
2023-02-17T10:34:37.333Z,100489.00
2023-02-17T10:37:12.896Z,100489.47
2023-02-17T10:39:42.243Z,100483.91
2023-02-17T10:42:16.834Z,100480.97
2023-02-17T10:44:44.061Z,100469.13
2023-02-17T10:47:10.812Z,100462.97
2023-02-17T10:49:39.882Z,100461.41
2023-02-17T10:52:20.432Z,100453.88
2023-02-17T10:54:50.573Z,100444.66
2023-02-17T10:57:17.760Z,100414.66
2023-02-17T10:59:45.312Z,100417.72
2023-02-17T11:02:30.522Z,100415.53
2023-02-17T11:04:59.750Z,100424.97
2023-02-17T11:07:46.365Z,100411.00
2023-02-17T11:10:32.427Z,100419.00
2023-02-17T11:12:59.862Z,100405.69
2023-02-17T11:15:27.957Z,100399.50
2023-02-17T11:17:54.956Z,100372.19
2023-02-17T11:20:21.236Z,100379.50
2023-02-17T11:22:49.128Z,100367.00
2023-02-17T11:25:15.403Z,100357.28
2023-02-17T11:27:49.262Z,100349.69
2023-02-17T11:30:16.076Z,100349.63
2023-02-17T11:32:42.458Z,100337.72
2023-02-17T11:35:20.748Z,100339.00
2023-02-17T11:37:47.056Z,100321.78
2023-02-17T11:40:26.984Z,100305.66
2023-02-17T11:42:57.667Z,100306.25
2023-02-17T11:45:26.099Z,100300.78
2023-02-17T11:48:08.128Z,100295.81
2023-02-17T11:50:42.119Z,100292.09
2023-02-17T11:53:17.800Z,100285.34
2023-02-17T11:55:53.141Z,100287.06
2023-02-17T11:58:31.748Z,100275.97
2023-02-17T12:01:18.269Z,100269.78
2023-02-17T12:03:54.174Z,100271.56
2023-02-17T12:06:29.466Z,100271.38
2023-02-17T12:09:10.747Z,100275.38
2023-02-17T12:11:42.969Z,100259.09
2023-02-17T12:14:10.740Z,100256.66
2023-02-17T12:16:37.163Z,100243.28
2023-02-17T12:19:06.386Z,100250.28
2023-02-17T12:21:52.989Z,100245.31
2023-02-17T12:24:30.243Z,100242.06
2023-02-17T12:27:04.275Z,100258.13
2023-02-17T12:29:41.392Z,100245.50
2023-02-17T12:32:18.687Z,100245.59
2023-02-17T12:34:52.777Z,100258.91
2023-02-17T12:37:21.802Z,100236.22
2023-02-17T12:39:54.143Z,100237.22
2023-02-17T12:42:25.200Z,100227.97
2023-02-17T12:44:56.571Z,100235.53
2023-02-17T12:47:28.867Z,100232.06
2023-02-17T12:50:00.912Z,100226.59
2023-02-17T12:52:32.927Z,100223.31
2023-02-17T12:55:04.752Z,100229.16
2023-02-17T12:57:46.146Z,100219.63
2023-02-17T13:00:20.127Z,100237.00
2023-02-17T13:02:47.017Z,100224.56
2023-02-17T13:05:25.261Z,100223.94
2023-02-17T13:07:56.605Z,100230.41
2023-02-17T13:10:25.998Z,100224.88
2023-02-17T13:12:57.198Z,100211.41
2023-02-17T13:15:43.459Z,100210.25
2023-02-17T13:18:15.033Z,100205.50
2023-02-17T13:20:56.197Z,100211.19
2023-02-17T13:23:27.835Z,100199.38
2023-02-17T13:26:14.585Z,100204.34
2023-02-17T13:28:41.341Z,100207.94
2023-02-17T13:31:20.095Z,100203.34
2023-02-17T13:33:48.394Z,100205.06
2023-02-17T13:36:16.976Z,100209.53
2023-02-17T13:38:52.537Z,100210.34
2023-02-17T13:41:18.877Z,100206.88
2023-02-17T13:43:45.194Z,100223.84
2023-02-17T13:46:16.166Z,100215.34
2023-02-17T13:48:42.480Z,100211.16
2023-02-17T13:51:23.982Z,100224.91
2023-02-17T13:53:50.677Z,100217.63
2023-02-17T13:56:24.944Z,100219.13
2023-02-17T13:58:51.268Z,100225.28
2023-02-17T14:01:19.203Z,100226.22
2023-02-17T14:03:47.396Z,100236.50
2023-02-17T14:06:23.171Z,100244.22
2023-02-17T14:08:49.682Z,100239.59
2023-02-17T14:11:21.333Z,100235.53
2023-02-17T14:13:48.506Z,100239.97
2023-02-17T14:16:27.743Z,100249.97
2023-02-17T14:19:08.170Z,100238.66
2023-02-17T14:21:35.379Z,100236.06
2023-02-17T14:24:01.768Z,100226.97
2023-02-17T14:26:46.415Z,100225.75
2023-02-17T14:29:13.391Z,100227.09
2023-02-17T14:31:41.161Z,100217.59
2023-02-17T14:34:08.668Z,100214.56
2023-02-17T14:36:36.431Z,100218.38
2023-02-17T14:39:04.533Z,100212.44
2023-02-17T14:41:30.863Z,100198.13
2023-02-17T14:43:57.243Z,100205.13
2023-02-17T14:46:23.636Z,100199.56
2023-02-17T14:48:50.557Z,100187.19
2023-02-17T14:51:21.453Z,100195.47
2023-02-17T14:53:48.576Z,100200.53
2023-02-17T14:56:27.039Z,100183.75
2023-02-17T14:58:53.491Z,100166.28
2023-02-17T15:01:21.104Z,100176.28
2023-02-17T15:03:47.527Z,100173.91
2023-02-17T15:06:18.196Z,100165.41
2023-02-17T15:08:45.899Z,100170.34
2023-02-17T15:11:17.666Z,100160.91
2023-02-17T15:13:44.042Z,100151.22
2023-02-17T15:16:10.747Z,100146.34
2023-02-17T15:18:37.398Z,100152.19
2023-02-17T15:21:15.842Z,100154.31
2023-02-17T15:23:42.193Z,100139.38
2023-02-17T15:26:10.354Z,100141.19
2023-02-17T15:28:36.767Z,100131.53
2023-02-17T15:31:04.138Z,100124.56
2023-02-17T15:33:30.576Z,100125.69
2023-02-17T15:35:56.856Z,100139.53
2023-02-17T15:38:23.978Z,100124.31
2023-02-17T15:40:51.045Z,100127.66
2023-02-17T15:43:19.575Z,100116.34
2023-02-17T15:45:46.274Z,100107.25
2023-02-17T15:48:17.864Z,100118.78
2023-02-17T15:50:44.348Z,100120.63
2023-02-17T15:53:10.681Z,100113.88
2023-02-17T15:55:38.901Z,100112.72
2023-02-17T15:58:06.465Z,100130.75
2023-02-17T16:00:34.368Z,100129.44
2023-02-17T16:03:00.724Z,100131.97
2023-02-17T16:05:28.709Z,100141.81
2023-02-17T16:07:55.184Z,100156.22
2023-02-17T16:10:23.316Z,100152.94
2023-02-17T16:12:50.735Z,100161.00
2023-02-17T16:15:19.050Z,100160.16
2023-02-17T16:17:47.551Z,100192.63
2023-02-17T16:20:16.556Z,100193.47
2023-02-17T16:22:43.486Z,100185.19
2023-02-17T16:25:09.888Z,100178.94
2023-02-17T16:27:36.780Z,100169.81
2023-02-17T16:30:13.958Z,100176.66
2023-02-17T16:32:40.457Z,100178.66
2023-02-17T16:35:07.013Z,100176.97
2023-02-17T16:37:33.539Z,100168.75
2023-02-17T16:40:00.122Z,100170.44
2023-02-17T16:42:26.501Z,100175.97
2023-02-17T16:44:52.834Z,100168.28
2023-02-17T16:47:20.846Z,100176.25
2023-02-17T16:49:47.466Z,100172.94
2023-02-17T16:52:22.573Z,100143.56
2023-02-17T16:54:48.858Z,100175.41
2023-02-17T16:57:18.481Z,100175.59
2023-02-17T16:59:45.127Z,100172.91
2023-02-17T17:02:12.020Z,100191.25
2023-02-17T17:04:38.455Z,100201.78
2023-02-17T17:07:04.848Z,100200.59
2023-02-17T17:09:31.266Z,100203.94
2023-02-17T17:11:57.784Z,100224.66
2023-02-17T17:14:24.711Z,100231.50
2023-02-17T17:16:52.220Z,100249.81
2023-02-17T17:19:18.560Z,100261.28
2023-02-17T17:21:44.941Z,100253.41
2023-02-17T17:24:11.256Z,100275.03
2023-02-17T17:26:39.819Z,100283.19
2023-02-17T17:29:07.222Z,100282.91
2023-02-17T17:31:33.679Z,100285.63
2023-02-17T17:34:00.027Z,100282.06
2023-02-17T17:36:52.787Z,100309.34
2023-02-17T17:39:20.450Z,100318.81
2023-02-17T17:41:47.219Z,100307.09
2023-02-17T17:44:13.910Z,100312.69
2023-02-17T17:46:40.581Z,100301.88
2023-02-17T17:49:10.144Z,100279.81
2023-02-17T17:51:37.265Z,100296.94
2023-02-17T17:54:05.076Z,100309.53
2023-02-17T17:56:33.046Z,100319.59
2023-02-17T17:59:00.884Z,100318.41
2023-02-17T18:01:27.655Z,100329.88
2023-02-17T18:03:54.492Z,100347.97
2023-02-17T18:06:34.302Z,100286.66
2023-02-17T18:09:02.363Z,100365.09
2023-02-17T18:11:28.998Z,100350.34
2023-02-17T18:13:58.154Z,100382.19
2023-02-17T18:16:27.124Z,100380.38
2023-02-17T18:18:54.543Z,100382.00
2023-02-17T18:21:20.917Z,100394.56
2023-02-17T18:23:48.019Z,100398.22
2023-02-17T18:26:14.885Z,100399.19
2023-02-17T18:28:42.346Z,100410.88
2023-02-17T18:31:13.251Z,100399.16
2023-02-17T18:33:39.974Z,100414.84
2023-02-17T18:36:10.271Z,100411.34
2023-02-17T18:38:36.820Z,100435.81
2023-02-17T18:41:03.380Z,100448.22
2023-02-17T18:43:29.767Z,100463.56
2023-02-17T18:45:56.130Z,100478.47
2023-02-17T18:48:22.437Z,100489.75
2023-02-17T18:50:50.431Z,100483.09
2023-02-17T18:53:17.588Z,100487.69
2023-02-17T18:55:44.413Z,100469.78
2023-02-17T18:58:12.402Z,100482.78
2023-02-17T19:00:38.859Z,100490.38
2023-02-17T19:03:05.169Z,100482.06
2023-02-17T19:05:31.597Z,100509.00
2023-02-17T19:07:58.396Z,100516.31
2023-02-17T19:10:24.726Z,100520.03
2023-02-17T19:12:51.104Z,100520.25
2023-02-17T19:15:20.754Z,100531.53
2023-02-17T19:17:48.526Z,100539.56
2023-02-17T19:20:16.859Z,100548.94
2023-02-17T19:22:43.220Z,100540.50
2023-02-17T19:25:09.660Z,100554.78
2023-02-17T19:27:38.142Z,100554.50
2023-02-17T19:30:04.808Z,100566.38
2023-02-17T19:32:31.249Z,100550.81
2023-02-17T19:34:57.771Z,100573.84
2023-02-17T19:37:24.136Z,100573.94
2023-02-17T19:39:50.506Z,100574.63
2023-02-17T19:42:16.944Z,100568.63
2023-02-17T19:44:43.313Z,100570.34
2023-02-17T19:47:09.992Z,100570.41
2023-02-17T19:49:36.447Z,100572.69
2023-02-17T19:52:02.767Z,100608.97
2023-02-17T19:54:29.205Z,100602.72
2023-02-17T19:56:55.546Z,100619.63
2023-02-17T19:59:21.881Z,100614.03
2023-02-17T20:01:48.204Z,100625.75
2023-02-17T20:04:14.972Z,100631.53
2023-02-17T20:06:42.945Z,100640.97
2023-02-17T20:09:11.280Z,100633.47
2023-02-17T20:11:37.934Z,100635.72
2023-02-17T20:14:04.507Z,100639.25
2023-02-17T20:16:31.018Z,100649.91
2023-02-17T20:18:59.539Z,100659.88
2023-02-17T20:21:28.496Z,100664.66
2023-02-17T20:23:55.058Z,100659.00
2023-02-17T20:26:26.272Z,100670.72
2023-02-17T20:28:52.718Z,100667.44
2023-02-17T20:31:19.896Z,100666.41
2023-02-17T20:33:46.696Z,100669.56
2023-02-17T20:36:13.153Z,100670.47
2023-02-17T20:38:40.491Z,100685.88
2023-02-17T20:41:08.131Z,100682.31
2023-02-17T20:43:35.458Z,100677.00
2023-02-17T20:46:01.819Z,100677.31
2023-02-17T20:48:28.248Z,100687.19
2023-02-17T20:50:55.169Z,100692.19
2023-02-17T20:53:21.497Z,100695.84
2023-02-17T20:55:47.922Z,100690.06
2023-02-17T20:58:14.477Z,100691.28
2023-02-17T21:00:40.831Z,100702.94
2023-02-17T21:03:07.290Z,100702.28
2023-02-17T21:05:33.725Z,100702.56
2023-02-17T21:08:00.040Z,100700.34
2023-02-17T21:10:28.779Z,100703.75
2023-02-17T21:12:55.124Z,100707.53
2023-02-17T21:15:21.972Z,100722.81
2023-02-17T21:17:48.952Z,100732.03
2023-02-17T21:20:16.851Z,100725.44
2023-02-17T21:22:43.232Z,100718.25
2023-02-17T21:25:09.673Z,100742.94
2023-02-17T21:27:36.319Z,100748.25
2023-02-17T21:30:03.565Z,100753.63
2023-02-17T21:32:29.898Z,100737.84
2023-02-17T21:34:56.266Z,100752.31
2023-02-17T21:37:22.672Z,100744.28
2023-02-17T21:39:49.455Z,100744.41
2023-02-17T21:42:35.903Z,100762.06
2023-02-17T21:45:02.373Z,100760.97
2023-02-17T21:47:28.663Z,100780.31
2023-02-17T21:49:55.140Z,100783.34
2023-02-17T21:52:21.996Z,100769.25
2023-02-17T21:54:48.336Z,100786.38
2023-02-17T21:57:14.646Z,100771.69
2023-02-17T21:59:41.649Z,100786.09
2023-02-17T22:02:10.356Z,100789.94
2023-02-17T22:04:36.651Z,100787.56
2023-02-17T22:07:03.007Z,100796.00
2023-02-17T22:09:29.311Z,100813.78
2023-02-17T22:11:55.710Z,100802.75
2023-02-17T22:14:22.766Z,100795.91
2023-02-17T22:16:49.270Z,100800.78
2023-02-17T22:19:17.219Z,100809.69
2023-02-17T22:21:44.368Z,100813.50
2023-02-17T22:24:10.860Z,100821.97
2023-02-17T22:26:37.589Z,100828.88
2023-02-17T22:29:04.448Z,100825.22
2023-02-17T22:31:31.356Z,100825.03
2023-02-17T22:33:58.743Z,100819.16
2023-02-17T22:36:27.284Z,100819.00
2023-02-17T22:38:55.123Z,100828.00
2023-02-17T22:41:22.993Z,100816.78
2023-02-17T22:43:49.635Z,100820.63
2023-02-17T22:46:18.056Z,100837.09
2023-02-17T22:48:45.520Z,100830.22
2023-02-17T22:51:13.937Z,100845.31
2023-02-17T22:53:40.347Z,100833.59
2023-02-17T22:56:07.745Z,100827.84
2023-02-17T22:58:34.651Z,100828.00
2023-02-17T23:01:30.320Z,100841.78
2023-02-17T23:03:56.672Z,100841.13
2023-02-17T23:06:24.847Z,100842.41
2023-02-17T23:08:51.226Z,100845.44
2023-02-17T23:11:18.549Z,100837.28
2023-02-17T23:13:45.189Z,100847.53
2023-02-17T23:16:19.036Z,100860.31
2023-02-17T23:18:45.378Z,100863.69
2023-02-17T23:21:12.844Z,100856.50
2023-02-17T23:23:39.298Z,100840.47
2023-02-17T23:26:06.005Z,100864.69
2023-02-17T23:28:33.092Z,100860.16
2023-02-17T23:30:59.463Z,100848.00
2023-02-17T23:33:25.799Z,100846.41
2023-02-17T23:35:52.108Z,100859.06
2023-02-17T23:38:20.410Z,100870.59
2023-02-17T23:40:51.087Z,100861.63
2023-02-17T23:43:18.155Z,100867.06
2023-02-17T23:45:44.635Z,100869.66
2023-02-17T23:48:11.005Z,100869.97
2023-02-17T23:50:37.325Z,100879.88
2023-02-17T23:53:04.127Z,100859.22
2023-02-17T23:55:30.454Z,100858.09
2023-02-17T23:57:56.736Z,100868.03
